Time;durP1;ratioP1;P1;durP2;ratioP2;P2;SDS_P1;SDS_P2;PMS_P1;PMS_P2;Temp;Humidity;BMP_temperature;BMP_pressure;BME280_temperature;BME280_humidity;BME280_pressure;Samples;Min_cycle;Max_cycle;Signal;HPM_P1;HPM_P2
2023/09/13 00:01:16;;;;;;;14.27;9.82;;;18.50;99.90;;;;;;4976522;28;95531;-32
2023/09/13 00:03:42;;;;;;;15.75;10.77;;;18.50;99.90;;;;;;4978782;28;94998;-35
2023/09/13 00:06:07;;;;;;;15.80;10.70;;;18.50;99.90;;;;;;4990210;28;93349;-38
2023/09/13 00:08:33;;;;;;;12.02;9.23;;;18.60;99.90;;;;;;4988724;28;92953;-33
2023/09/13 00:11:05;;;;;;;17.42;10.15;;;18.40;99.90;;;;;;4983779;28;94956;-32
2023/09/13 00:13:34;;;;;;;12.00;10.32;;;18.40;99.90;;;;;;4985778;28;93995;-33
2023/09/13 00:16:00;;;;;;;21.55;11.02;;;18.50;99.90;;;;;;4976388;28;93724;-39
2023/09/13 00:18:25;;;;;;;14.55;11.18;;;18.50;99.90;;;;;;4959910;28;92179;-36
2023/09/13 00:20:54;;;;;;;17.73;10.88;;;18.70;99.90;;;;;;4971470;28;94667;-34
2023/09/13 00:23:20;;;;;;;14.55;9.63;;;18.00;99.90;;;;;;4977105;28;94558;-34
2023/09/13 00:25:46;;;;;;;13.93;10.95;;;18.40;99.90;;;;;;4964300;28;95056;-35
2023/09/13 00:28:12;;;;;;;15.95;10.02;;;18.40;99.90;;;;;;4977855;28;92346;-35
2023/09/13 00:30:38;;;;;;;19.05;11.88;;;18.40;99.90;;;;;;4995778;28;95606;-35
2023/09/13 00:33:04;;;;;;;20.98;10.02;;;18.50;99.90;;;;;;4995033;28;94477;-34
2023/09/13 00:35:30;;;;;;;16.17;10.52;;;18.30;99.90;;;;;;4986852;28;94648;-34
2023/09/13 00:37:55;;;;;;;14.30;8.13;;;18.30;99.90;;;;;;4985786;28;92851;-34
2023/09/13 00:40:21;;;;;;;15.40;8.55;;;18.30;99.90;;;;;;4976828;28;94706;-37
2023/09/13 00:42:47;;;;;;;20.92;9.45;;;18.30;99.90;;;;;;4988163;28;94190;-35
2023/09/13 00:45:12;;;;;;;11.95;8.35;;;18.30;99.90;;;;;;4979875;28;93623;-36
2023/09/13 00:47:42;;;;;;;16.55;8.52;;;18.40;99.90;;;;;;4977774;28;93490;-34
2023/09/13 00:50:11;;;;;;;11.45;8.38;;;18.30;99.90;;;;;;4988875;28;96951;-34
2023/09/13 00:52:38;;;;;;;14.50;8.00;;;18.40;99.90;;;;;;4988933;28;95314;-36
2023/09/13 00:55:06;;;;;;;8.80;7.25;;;18.30;99.90;;;;;;4976996;28;94148;-35
2023/09/13 00:57:33;;;;;;;15.07;8.93;;;18.30;99.90;;;;;;4978071;28;94200;-32
2023/09/13 01:00:00;;;;;;;9.98;7.38;;;18.30;99.90;;;;;;4995996;28;94412;-37
2023/09/13 01:02:26;;;;;;;10.98;7.40;;;18.20;99.90;;;;;;4996804;28;94039;-32
2023/09/13 01:04:52;;;;;;;15.02;8.02;;;18.20;99.90;;;;;;4959750;28;92513;-36
2023/09/13 01:07:19;;;;;;;11.15;5.32;;;18.20;99.90;;;;;;4977422;28;93832;-37
2023/09/13 01:09:44;;;;;;;10.75;6.00;;;18.10;99.90;;;;;;4976920;28;95101;-35
2023/09/13 01:12:10;;;;;;;12.32;6.03;;;18.10;99.90;;;;;;4990253;28;94611;-35
2023/09/13 01:14:35;;;;;;;17.02;6.55;;;18.20;99.90;;;;;;4989592;28;95014;-36
2023/09/13 01:17:19;;;;;;;15.40;6.43;;;18.20;99.90;;;;;;4976812;28;92639;-36
2023/09/13 01:20:09;;;;;;;11.77;7.68;;;18.10;99.90;;;;;;4967703;28;94971;-35
2023/09/13 01:23:24;;;;;;;7.70;4.20;;;18.10;99.90;;;;;;4977980;28;94743;-33
2023/09/13 01:26:07;;;;;;;9.35;5.22;;;18.10;99.90;;;;;;4964936;28;94464;-33
2023/09/13 01:28:44;;;;;;;10.23;5.43;;;18.10;99.90;;;;;;4978973;28;93266;-37
2023/09/13 01:31:11;;;;;;;12.52;5.07;;;18.10;99.90;;;;;;4976183;28;95446;-32
2023/09/13 01:33:37;;;;;;;6.72;4.35;;;18.10;99.90;;;;;;4978626;28;95331;-36
2023/09/13 01:36:03;;;;;;;7.25;4.50;;;18.10;99.90;;;;;;4989610;28;92149;-38
2023/09/13 01:38:30;;;;;;;5.75;3.97;;;18.10;99.90;;;;;;4959426;28;92995;-35
2023/09/13 01:41:09;;;;;;;8.98;4.03;;;18.10;99.90;;;;;;4983841;28;95246;-35
2023/09/13 01:43:35;;;;;;;6.65;3.83;;;18.00;99.90;;;;;;4982221;28;94994;-36
2023/09/13 01:46:03;;;;;;;8.88;4.40;;;17.90;99.90;;;;;;4986442;28;92106;-37
2023/09/13 01:48:29;;;;;;;9.93;5.30;;;18.00;99.90;;;;;;4990312;28;93628;-36
2023/09/13 01:50:56;;;;;;;6.03;3.58;;;17.90;99.90;;;;;;4986576;28;94592;-35
2023/09/13 01:53:22;;;;;;;6.70;3.55;;;18.00;99.90;;;;;;4982182;28;94471;-35
2023/09/13 01:55:48;;;;;;;7.00;3.20;;;17.90;99.90;;;;;;4996259;28;93214;-36
2023/09/13 01:58:13;;;;;;;5.22;3.55;;;17.80;99.90;;;;;;4990582;28;91675;-37
2023/09/13 02:00:40;;;;;;;5.70;3.47;;;17.70;99.90;;;;;;4987919;28;94961;-34
2023/09/13 02:03:06;;;;;;;6.35;4.13;;;17.60;99.90;;;;;;4976969;28;94413;-37
2023/09/13 02:05:32;;;;;;;7.35;3.63;;;17.60;99.90;;;;;;4987973;28;94314;-36
2023/09/13 02:07:57;;;;;;;9.20;3.70;;;17.50;99.90;;;;;;4995704;28;92126;-33
2023/09/13 02:10:23;;;;;;;4.45;3.78;;;17.50;99.90;;;;;;4995408;28;95857;-36
2023/09/13 02:12:49;;;;;;;6.63;3.58;;;17.50;99.90;;;;;;4994357;28;94761;-36
2023/09/13 02:15:14;;;;;;;3.70;3.33;;;17.60;99.90;;;;;;4965119;28;93468;-34
2023/09/13 02:17:41;;;;;;;8.88;4.28;;;17.60;99.90;;;;;;4988199;28;92914;-36
2023/09/13 02:20:07;;;;;;;11.60;3.72;;;17.40;99.90;;;;;;4976376;28;94942;-36
2023/09/13 02:22:33;;;;;;;6.55;4.05;;;17.40;99.90;;;;;;4981958;28;95874;-35
2023/09/13 02:24:59;;;;;;;5.40;4.30;;;17.40;99.90;;;;;;4994636;28;94111;-37
2023/09/13 02:27:24;;;;;;;8.57;4.47;;;17.40;99.90;;;;;;4989063;28;94319;-33
2023/09/13 02:29:50;;;;;;;10.05;4.28;;;17.40;99.90;;;;;;4974478;28;94153;-33
2023/09/13 02:32:15;;;;;;;7.55;4.10;;;17.30;99.90;;;;;;4995089;28;95310;-34
2023/09/13 02:34:44;;;;;;;12.13;5.03;;;17.30;99.90;;;;;;4995497;28;94835;-34
2023/09/13 02:37:10;;;;;;;16.00;5.15;;;17.40;99.90;;;;;;4985014;28;92838;-38
2023/09/13 02:39:38;;;;;;;6.53;4.20;;;17.40;99.90;;;;;;4986609;28;95034;-35
2023/09/13 02:42:04;;;;;;;;;;;17.40;99.90;;;;;;4978154;28;94346;-37
2023/09/13 02:44:31;;;;;;;6.95;4.18;;;17.30;99.90;;;;;;4977087;28;92137;-36
2023/09/13 02:46:57;;;;;;;5.97;3.67;;;17.30;99.90;;;;;;4976012;28;92737;-36
2023/09/13 02:49:23;;;;;;;7.10;4.63;;;17.40;99.90;;;;;;4976223;28;95788;-34
2023/09/13 02:51:49;;;;;;;3.42;3.13;;;17.30;99.90;;;;;;4974912;28;94499;-37
2023/09/13 02:54:15;;;;;;;8.10;4.10;;;17.30;99.90;;;;;;4975478;28;93530;-33
2023/09/13 02:56:40;;;;;;;7.43;3.38;;;17.20;99.90;;;;;;4975122;28;93436;-36
2023/09/13 02:59:06;;;;;;;7.93;3.45;;;17.20;99.90;;;;;;4975407;28;94978;-37
2023/09/13 03:01:31;;;;;;;9.23;4.10;;;17.20;99.90;;;;;;4975535;28;94536;-34
2023/09/13 03:03:57;;;;;;;4.30;3.78;;;17.20;99.90;;;;;;4988238;28;93397;-34
2023/09/13 03:06:23;;;;;;;10.88;4.18;;;17.10;99.90;;;;;;4975880;28;94432;-35
2023/09/13 03:08:48;;;;;;;12.40;3.95;;;17.10;99.90;;;;;;4975587;28;95003;-37
2023/09/13 03:11:16;;;;;;;5.80;3.65;;;17.10;99.90;;;;;;4982008;28;95781;-35
2023/09/13 03:13:43;;;;;;;;;;;17.00;99.90;;;;;;4983112;28;92839;-33
2023/09/13 03:16:16;;;;;;;10.98;4.78;;;17.00;99.90;;;;;;4996081;28;93186;-35
2023/09/13 03:18:42;;;;;;;8.35;3.72;;;17.10;99.90;;;;;;4992739;28;95994;-34
2023/09/13 03:21:09;;;;;;;7.13;3.83;;;17.00;99.90;;;;;;4983309;28;94971;-36
2023/09/13 03:23:38;;;;;;;10.52;4.70;;;17.00;99.90;;;;;;4992166;28;94876;-39
2023/09/13 03:26:14;;;;;;;6.80;4.00;;;17.00;99.90;;;;;;4975762;28;94597;-37
2023/09/13 03:28:41;;;;;;;7.18;3.78;;;17.00;99.90;;;;;;4982246;28;94703;-35
2023/09/13 03:31:16;;;;;;;6.47;3.80;;;17.00;99.90;;;;;;4997537;28;94799;-37
2023/09/13 03:33:43;;;;;;;7.50;3.75;;;16.90;99.90;;;;;;4978966;28;93706;-35
2023/09/13 03:36:10;;;;;;;7.85;4.50;;;17.00;99.90;;;;;;4991459;28;93784;-35
2023/09/13 03:38:38;;;;;;;6.00;4.07;;;17.10;99.90;;;;;;4978783;28;94759;-35
2023/09/13 03:41:05;;;;;;;5.82;3.63;;;17.10;99.90;;;;;;4978619;28;94957;-34
2023/09/13 03:43:31;;;;;;;8.88;4.13;;;17.00;99.90;;;;;;4981246;28;93869;-34
2023/09/13 03:45:57;;;;;;;3.92;3.08;;;17.10;99.90;;;;;;4988570;28;94266;-37
2023/09/13 03:48:22;;;;;;;8.13;3.58;;;17.00;99.90;;;;;;4993048;28;94724;-34
2023/09/13 03:50:51;;;;;;;5.22;3.50;;;16.90;99.90;;;;;;4988664;28;94760;-33
2023/09/13 03:53:17;;;;;;;5.47;3.63;;;16.90;99.90;;;;;;4978776;28;92855;-36
2023/09/13 03:55:43;;;;;;;8.60;4.20;;;17.00;99.90;;;;;;4987761;28;94235;-33
2023/09/13 03:58:09;;;;;;;6.90;4.13;;;17.00;99.90;;;;;;4991274;28;94998;-37
2023/09/13 04:00:35;;;;;;;7.60;3.67;;;17.00;99.90;;;;;;4978540;28;94387;-33
2023/09/13 04:03:02;;;;;;;10.30;4.28;;;17.00;99.90;;;;;;4993216;28;92565;-38
2023/09/13 04:05:27;;;;;;;9.02;3.58;;;17.00;99.90;;;;;;4979311;28;92572;-36
2023/09/13 04:07:53;;;;;;;6.50;3.58;;;17.00;99.90;;;;;;4989971;28;96890;-36
2023/09/13 04:10:19;;;;;;;13.48;3.95;;;16.90;99.90;;;;;;4977767;28;96122;-37
2023/09/13 04:12:44;;;;;;;4.03;3.50;;;16.90;99.90;;;;;;4994569;28;93506;-38
2023/09/13 04:15:10;;;;;;;8.68;4.05;;;16.80;99.90;;;;;;4986065;28;93301;-34
2023/09/13 04:17:36;;;;;;;7.50;3.78;;;16.90;99.90;;;;;;4972415;28;94915;-35
2023/09/13 04:20:01;;;;;;;7.57;4.32;;;16.90;99.90;;;;;;4977494;28;94449;-35
2023/09/13 04:22:27;;;;;;;11.10;4.00;;;17.00;99.90;;;;;;4983049;28;93328;-33
2023/09/13 04:24:53;;;;;;;24.70;4.70;;;16.90;99.90;;;;;;4996742;28;92780;-35
2023/09/13 04:27:22;;;;;;;9.63;4.05;;;16.80;99.90;;;;;;4996052;28;94674;-34
2023/09/13 04:29:48;;;;;;;8.00;4.15;;;16.70;99.90;;;;;;4996074;28;94046;-38
2023/09/13 04:32:14;;;;;;;13.20;4.82;;;16.60;99.90;;;;;;4981498;28;94796;-35
2023/09/13 04:34:40;;;;;;;8.23;4.40;;;16.50;99.90;;;;;;4984052;28;94632;-34
2023/09/13 04:37:06;;;;;;;5.75;3.75;;;16.50;99.90;;;;;;4977197;28;94061;-39
2023/09/13 04:39:32;;;;;;;9.65;4.30;;;16.40;99.90;;;;;;4977609;28;94499;-37
2023/09/13 04:41:59;;;;;;;6.78;4.20;;;16.50;99.90;;;;;;4977651;28;94422;-38
2023/09/13 04:44:25;;;;;;;8.77;4.25;;;16.50;99.90;;;;;;4978299;28;94491;-36
2023/09/13 04:46:56;;;;;;;8.88;5.03;;;16.50;99.90;;;;;;4977665;28;94762;-36
2023/09/13 04:49:22;;;;;;;8.13;3.83;;;16.50;99.90;;;;;;4978031;28;96000;-32
2023/09/13 04:51:47;;;;;;;6.43;3.72;;;16.50;99.90;;;;;;4978229;28;94402;-35
2023/09/13 04:54:13;;;;;;;9.23;4.03;;;16.50;99.90;;;;;;4977785;28;93537;-37
2023/09/13 04:56:39;;;;;;;6.95;3.42;;;16.50;99.90;;;;;;4982319;28;95726;-35
2023/09/13 04:59:04;;;;;;;8.13;4.43;;;16.50;99.90;;;;;;4977122;28;95526;-37
2023/09/13 05:01:30;;;;;;;15.15;4.68;;;16.50;99.90;;;;;;4980607;28;92872;-34
2023/09/13 05:03:57;;;;;;;6.47;4.00;;;16.40;99.90;;;;;;4983944;28;94213;-38
2023/09/13 05:06:22;;;;;;;9.88;4.22;;;16.40;99.90;;;;;;4978162;28;94889;-38
2023/09/13 05:08:52;;;;;;;10.30;4.63;;;16.40;99.90;;;;;;4977036;28;94652;-37
2023/09/13 05:11:23;;;;;;;6.65;4.07;;;16.40;99.90;;;;;;4976844;28;93218;-34
2023/09/13 05:13:49;;;;;;;7.82;3.88;;;16.40;99.90;;;;;;4977340;28;91992;-36
2023/09/13 05:16:19;;;;;;;9.32;4.25;;;16.30;99.90;;;;;;4965376;28;94945;-36
2023/09/13 05:18:45;;;;;;;9.68;4.75;;;16.40;99.90;;;;;;4973521;28;94567;-36
2023/09/13 05:21:11;;;;;;;8.65;4.32;;;16.50;99.90;;;;;;4972205;28;94252;-35
2023/09/13 05:23:37;;;;;;;7.40;3.83;;;16.40;99.90;;;;;;4976419;28;94491;-32
2023/09/13 05:26:03;;;;;;;6.93;4.35;;;16.70;99.90;;;;;;4990614;28;94574;-39
2023/09/13 05:28:33;;;;;;;5.13;3.25;;;16.40;99.90;;;;;;4985792;28;94744;-36
2023/09/13 05:31:03;;;;;;;8.60;4.18;;;16.30;99.90;;;;;;5040594;22;94135;-37
2023/09/13 05:33:29;;;;;;;13.43;3.75;;;16.30;99.90;;;;;;4976171;28;94024;-36
2023/09/13 05:35:55;;;;;;;5.13;3.00;;;16.20;99.90;;;;;;4988581;28;94819;-33
2023/09/13 05:38:21;;;;;;;4.82;2.88;;;16.20;99.90;;;;;;4976581;28;94960;-37
2023/09/13 05:40:47;;;;;;;6.20;2.97;;;16.10;99.90;;;;;;4977154;28;93236;-34
2023/09/13 05:43:12;;;;;;;10.18;3.05;;;16.10;99.90;;;;;;4980781;28;93826;-38
2023/09/13 05:45:40;;;;;;;8.68;2.50;;;16.00;99.90;;;;;;4995926;28;95203;-34
2023/09/13 05:48:06;;;;;;;10.38;3.47;;;16.00;99.90;;;;;;4980459;28;96265;-35
2023/09/13 05:50:32;;;;;;;6.25;2.45;;;15.90;99.90;;;;;;4975997;28;93471;-38
2023/09/13 05:52:57;;;;;;;5.35;2.60;;;15.90;99.90;;;;;;4976468;28;95011;-33
2023/09/13 05:55:23;;;;;;;7.65;3.13;;;15.70;99.90;;;;;;4975712;28;95049;-31
2023/09/13 05:57:52;;;;;;;14.32;2.35;;;15.50;99.90;;;;;;4976219;28;94989;-36
2023/09/13 06:00:18;;;;;;;4.80;2.28;;;15.60;99.90;;;;;;4977111;28;93568;-36
2023/09/13 06:02:44;;;;;;;8.63;2.47;;;15.50;99.90;;;;;;4989363;28;92593;-36
2023/09/13 06:05:10;;;;;;;9.80;2.83;;;15.50;99.90;;;;;;4984115;28;94730;-35
2023/09/13 06:07:36;;;;;;;7.60;3.17;;;15.60;99.90;;;;;;4995648;28;94633;-33
2023/09/13 06:10:06;;;;;;;7.65;2.70;;;15.50;99.90;;;;;;4986424;28;95438;-34
2023/09/13 06:12:31;;;;;;;5.78;2.22;;;15.40;99.90;;;;;;4975973;28;93438;-34
2023/09/13 06:14:59;;;;;;;4.63;2.75;;;15.20;99.90;;;;;;4975651;28;94578;-34
2023/09/13 06:17:25;;;;;;;7.23;2.67;;;15.10;99.90;;;;;;4979567;28;94763;-37
2023/09/13 06:19:51;;;;;;;5.55;2.42;;;15.10;99.90;;;;;;4985970;28;94126;-34
2023/09/13 06:22:17;;;;;;;5.80;3.42;;;15.00;99.90;;;;;;4979307;28;92953;-37
2023/09/13 06:24:44;;;;;;;7.93;3.38;;;15.00;99.90;;;;;;4995849;28;95155;-33
2023/09/13 06:27:09;;;;;;;6.78;2.60;;;15.10;99.90;;;;;;4977468;28;95109;-38
2023/09/13 06:29:35;;;;;;;10.70;3.67;;;14.80;99.90;;;;;;4976327;28;94402;-33
2023/09/13 06:32:02;;;;;;;7.35;2.72;;;14.80;99.90;;;;;;4988118;28;93321;-38
2023/09/13 06:34:28;;;;;;;10.20;3.63;;;14.60;99.90;;;;;;4986943;28;96335;-34
2023/09/13 06:36:55;;;;;;;6.47;2.63;;;14.60;99.90;;;;;;4987666;28;95403;-32
2023/09/13 06:39:21;;;;;;;10.68;2.97;;;14.70;99.90;;;;;;4975965;28;93611;-38
2023/09/13 06:41:47;;;;;;;4.22;2.53;;;14.60;99.90;;;;;;4983107;28;93341;-34
2023/09/13 06:44:14;;;;;;;6.72;3.00;;;14.60;99.90;;;;;;4982414;28;94669;-36
2023/09/13 06:46:41;;;;;;;6.15;4.22;;;14.60;99.90;;;;;;4973346;28;93538;-32
2023/09/13 06:49:06;;;;;;;8.05;3.00;;;14.70;99.90;;;;;;4978695;28;94096;-37
2023/09/13 06:51:32;;;;;;;4.38;3.28;;;14.60;99.90;;;;;;4983795;28;93554;-35
2023/09/13 06:53:58;;;;;;;5.80;2.50;;;14.50;99.90;;;;;;4975330;28;95025;-35
2023/09/13 06:56:24;;;;;;;6.70;3.38;;;14.50;99.90;;;;;;4978864;28;94245;-37
2023/09/13 06:58:49;;;;;;;7.82;2.28;;;14.60;99.90;;;;;;4986401;28;94641;-35
2023/09/13 07:01:15;;;;;;;8.38;3.08;;;14.50;99.90;;;;;;4984909;28;92549;-35
2023/09/13 07:03:40;;;;;;;6.72;2.90;;;14.50;99.90;;;;;;4986750;28;96372;-35
2023/09/13 07:06:06;;;;;;;5.13;2.20;;;14.50;99.90;;;;;;4978503;28;94346;-33
2023/09/13 07:08:32;;;;;;;2.67;2.03;;;14.40;99.90;;;;;;4988095;28;92896;-34
2023/09/13 07:10:57;;;;;;;4.82;2.50;;;14.50;99.90;;;;;;4982186;28;92065;-35
2023/09/13 07:13:23;;;;;;;4.28;2.70;;;14.40;99.90;;;;;;4991453;28;94786;-35
2023/09/13 07:15:49;;;;;;;7.93;2.97;;;14.50;99.90;;;;;;4982972;28;94333;-34
2023/09/13 07:18:15;;;;;;;7.05;2.97;;;14.50;99.90;;;;;;4990838;28;93594;-37
2023/09/13 07:20:41;;;;;;;4.13;2.55;;;14.60;99.90;;;;;;4978461;28;93469;-36
2023/09/13 07:23:06;;;;;;;3.95;2.95;;;14.50;99.90;;;;;;4969287;28;96045;-35
2023/09/13 07:25:32;;;;;;;4.10;2.97;;;14.50;99.90;;;;;;4991156;28;95684;-35
2023/09/13 07:27:59;;;;;;;6.80;3.22;;;14.50;99.90;;;;;;4990119;28;92880;-35
2023/09/13 07:30:25;;;;;;;6.78;3.47;;;14.60;99.90;;;;;;4983591;28;93900;-35
2023/09/13 07:32:51;;;;;;;7.72;3.17;;;14.50;99.90;;;;;;4990606;28;94613;-33
2023/09/13 07:35:16;;;;;;;6.30;2.80;;;15.30;99.90;;;;;;4979683;28;96108;-33
2023/09/13 07:37:42;;;;;;;7.63;3.42;;;14.50;99.90;;;;;;4983560;28;93137;-36
2023/09/13 07:40:10;;;;;;;7.13;3.17;;;14.50;99.90;;;;;;4978478;28;93856;-34
2023/09/13 07:42:36;;;;;;;7.18;3.65;;;14.60;99.90;;;;;;4978587;28;94844;-33
2023/09/13 07:45:01;;;;;;;7.50;3.28;;;14.40;99.90;;;;;;4978341;28;94489;-34
2023/09/13 07:47:28;;;;;;;7.55;3.85;;;14.50;99.90;;;;;;4978406;28;94044;-35
2023/09/13 07:49:54;;;;;;;10.90;4.75;;;14.50;99.90;;;;;;4991194;28;93150;-34
2023/09/13 07:52:20;;;;;;;4.97;3.60;;;14.40;99.90;;;;;;4988258;28;95494;-38
2023/09/13 07:54:46;;;;;;;10.43;3.58;;;14.50;99.90;;;;;;4984360;28;95307;-34
2023/09/13 07:57:12;;;;;;;7.43;4.07;;;14.50;99.90;;;;;;4988633;28;92549;-34
2023/09/13 07:59:38;;;;;;;11.88;3.63;;;14.40;99.90;;;;;;4994440;28;92769;-33
2023/09/13 08:02:04;;;;;;;5.93;3.85;;;14.40;99.90;;;;;;4997642;28;93768;-33
2023/09/13 08:04:30;;;;;;;11.23;4.22;;;14.40;99.90;;;;;;4980864;28;94224;-32
2023/09/13 08:06:55;;;;;;;13.18;4.13;;;14.40;99.90;;;;;;4977378;28;94896;-35
2023/09/13 08:09:21;;;;;;;7.72;4.05;;;14.60;99.90;;;;;;4977674;28;93701;-36
2023/09/13 08:11:47;;;;;;;9.38;4.55;;;14.70;99.90;;;;;;4976747;28;96123;-33
2023/09/13 08:14:13;;;;;;;11.18;3.97;;;14.70;99.90;;;;;;4977612;28;95028;-34
2023/09/13 08:16:38;;;;;;;7.20;4.63;;;14.70;99.90;;;;;;4978862;28;92604;-34
2023/09/13 08:19:04;;;;;;;9.98;4.28;;;14.80;99.90;;;;;;4990033;28;94308;-34
2023/09/13 08:21:30;;;;;;;12.90;4.18;;;14.90;99.90;;;;;;4976575;28;95212;-33
2023/09/13 08:23:55;;;;;;;10.25;4.05;;;14.90;99.90;;;;;;4976589;28;94329;-32
2023/09/13 08:26:21;;;;;;;11.88;4.47;;;14.90;99.90;;;;;;4978639;28;95279;-40
2023/09/13 08:28:47;;;;;;;9.48;4.00;;;14.90;99.90;;;;;;4985062;28;92971;-36
2023/09/13 08:31:12;;;;;;;17.15;4.63;;;15.00;99.90;;;;;;4979889;28;93769;-38
2023/09/13 08:33:38;;;;;;;7.75;3.72;;;15.00;99.90;;;;;;4972538;28;94350;-34
2023/09/13 08:36:04;;;;;;;6.65;3.67;;;15.00;99.90;;;;;;4987433;28;94627;-35
2023/09/13 08:38:30;;;;;;;12.98;4.57;;;15.00;99.90;;;;;;4976216;28;92687;-33
2023/09/13 08:40:55;;;;;;;12.02;4.60;;;14.90;99.90;;;;;;4974991;28;95287;-34
2023/09/13 08:43:22;;;;;;;9.05;4.50;;;15.00;99.90;;;;;;4974798;28;94035;-35
2023/09/13 08:45:49;;;;;;;6.68;4.30;;;15.10;99.90;;;;;;4975838;28;94094;-32
2023/09/13 08:48:16;;;;;;;7.88;3.90;;;15.10;99.90;;;;;;4975261;28;93875;-37
2023/09/13 08:50:42;;;;;;;11.73;4.27;;;15.10;99.90;;;;;;4975386;28;95868;-35
2023/09/13 08:53:10;;;;;;;12.18;4.10;;;15.00;99.90;;;;;;4975153;28;94534;-34
2023/09/13 08:55:37;;;;;;;4.18;3.33;;;15.20;99.90;;;;;;4975640;28;93233;-33
2023/09/13 08:58:04;;;;;;;11.57;4.68;;;14.60;99.90;;;;;;4974534;28;94370;-36
2023/09/13 09:00:33;;;;;;;6.60;3.88;;;15.20;99.90;;;;;;4974965;28;96567;-35
2023/09/13 09:03:04;;;;;;;9.52;4.38;;;15.40;99.90;;;;;;4973945;28;95798;-34
2023/09/13 09:05:31;;;;;;;8.43;3.92;;;15.30;99.90;;;;;;4966656;28;94186;-36
2023/09/13 09:07:58;;;;;;;7.45;3.38;;;15.30;99.90;;;;;;4975254;28;93488;-37
2023/09/13 09:10:24;;;;;;;7.43;3.72;;;15.50;99.90;;;;;;4974873;28;95105;-31
2023/09/13 09:12:53;;;;;;;5.43;4.38;;;15.50;99.90;;;;;;4979172;28;95046;-33
2023/09/13 09:15:20;;;;;;;8.80;5.05;;;15.50;99.90;;;;;;4975622;28;92983;-35
2023/09/13 09:17:48;;;;;;;9.50;3.97;;;15.60;99.90;;;;;;4975149;28;91705;-36
2023/09/13 09:20:14;;;;;;;5.78;3.42;;;15.70;99.90;;;;;;4978889;28;93841;-36
2023/09/13 09:22:41;;;;;;;12.82;4.43;;;15.90;99.90;;;;;;4974364;28;94442;-35
2023/09/13 09:25:11;;;;;;;10.48;4.18;;;15.90;99.90;;;;;;4987334;28;94875;-36
2023/09/13 09:27:39;;;;;;;12.27;4.38;;;16.10;99.90;;;;;;4977582;28;94569;-37
2023/09/13 09:30:06;;;;;;;15.83;4.97;;;16.30;99.90;;;;;;4971781;28;94570;-36
2023/09/13 09:32:37;;;;;;;4.63;3.70;;;16.50;99.90;;;;;;4964171;28;94543;-33
2023/09/13 09:35:05;;;;;;;7.10;4.18;;;16.70;99.90;;;;;;4979555;28;93534;-35
2023/09/13 09:37:33;;;;;;;6.53;3.45;;;16.90;99.90;;;;;;4980280;28;94515;-34
2023/09/13 09:39:58;;;;;;;;;;;16.90;99.90;;;;;;4987233;28;94347;-32
2023/09/13 09:42:24;;;;;;;6.80;3.75;;;16.90;99.90;;;;;;4985200;28;94396;-38
2023/09/13 09:44:51;;;;;;;7.78;4.47;;;16.90;99.90;;;;;;4993021;28;93481;-32
2023/09/13 09:47:17;;;;;;;7.20;2.88;;;17.30;99.90;;;;;;4974113;28;94498;-36
2023/09/13 09:49:47;;;;;;;4.93;3.22;;;16.80;99.90;;;;;;4973969;28;95620;-33
2023/09/13 09:52:14;;;;;;;7.38;2.90;;;16.70;99.90;;;;;;4981211;28;95205;-32
2023/09/13 09:54:39;;;;;;;10.32;3.95;;;16.80;99.90;;;;;;4980274;28;93534;-32
2023/09/13 09:57:06;;;;;;;8.63;3.47;;;16.90;99.90;;;;;;4984892;28;93214;-34
2023/09/13 09:59:34;;;;;;;5.90;3.17;;;17.00;99.90;;;;;;4985537;28;94473;-34
2023/09/13 10:02:00;;;;;;;;;;;17.00;99.90;;;;;;4974887;28;92968;-34
2023/09/13 10:04:26;;;;;;;13.07;3.88;;;17.10;99.90;;;;;;4989884;28;94053;-33
2023/09/13 10:07:04;;;;;;;8.85;3.50;;;17.30;99.90;;;;;;4993436;28;94257;-38
2023/09/13 10:09:44;;;;;;;5.68;3.72;;;17.20;99.90;;;;;;4992257;28;94737;-36
2023/09/13 10:12:11;;;;;;;7.95;3.58;;;17.10;99.90;;;;;;4991877;28;94918;-36
2023/09/13 10:14:39;;;;;;;8.57;4.03;;;17.00;99.90;;;;;;4960946;28;95323;-33
2023/09/13 10:17:05;;;;;;;10.05;4.97;;;16.90;99.90;;;;;;4971965;28;93139;-35
2023/09/13 10:19:32;;;;;;;5.95;3.78;;;16.80;99.90;;;;;;4974089;28;94699;-32
2023/09/13 10:21:59;;;;;;;9.05;4.32;;;17.10;99.90;;;;;;4985023;28;95806;-33
2023/09/13 10:24:38;;;;;;;9.13;3.97;;;17.40;99.90;;;;;;4981177;28;94239;-34
2023/09/13 10:27:07;;;;;;;8.82;3.35;;;17.50;99.90;;;;;;4975596;28;93819;-34
2023/09/13 10:29:45;;;;;;;8.43;2.80;;;17.60;99.90;;;;;;4946606;28;94720;-32
2023/09/13 10:32:15;;;;;;;3.53;2.72;;;17.80;99.90;;;;;;4984623;28;94510;-35
2023/09/13 10:34:49;;;;;;;6.55;3.35;;;17.90;99.90;;;;;;4984842;28;94171;-33
2023/09/13 10:37:34;;;;;;;5.90;2.95;;;17.80;99.90;;;;;;4987318;28;94397;-35
2023/09/13 10:40:17;;;;;;;5.50;3.63;;;17.60;99.90;;;;;;4978441;28;97595;-33
2023/09/13 10:42:44;;;;;;;6.65;3.20;;;17.50;99.90;;;;;;4979063;28;95967;-37
2023/09/13 10:45:17;;;;;;;10.70;3.95;;;17.20;99.90;;;;;;4981911;28;94644;-37
2023/09/13 10:47:43;;;;;;;10.07;3.55;;;17.00;99.90;;;;;;4998142;28;94826;-34
2023/09/13 10:50:09;;;;;;;12.23;3.38;;;16.60;99.90;;;;;;4980833;28;94686;-34
2023/09/13 10:52:36;;;;;;;8.20;4.13;;;16.40;99.90;;;;;;4981060;28;95152;-35
2023/09/13 10:55:06;;;;;;;7.50;4.38;;;16.40;99.90;;;;;;4993636;28;93420;-36
2023/09/13 10:57:33;;;;;;;10.18;3.88;;;16.30;99.90;;;;;;4995920;28;92445;-33
2023/09/13 10:59:59;;;;;;;5.22;3.63;;;16.40;99.90;;;;;;4980674;28;94735;-33
2023/09/13 11:02:26;;;;;;;4.88;3.00;;;16.30;99.90;;;;;;4980888;28;95081;-36
2023/09/13 11:04:52;;;;;;;4.55;2.80;;;16.40;99.90;;;;;;4976805;28;95597;-36
2023/09/13 11:07:18;;;;;;;5.40;2.85;;;16.30;99.90;;;;;;4988973;28;92781;-36
2023/09/13 11:09:45;;;;;;;7.75;3.58;;;16.20;99.90;;;;;;4976887;28;94799;-35
2023/09/13 11:12:14;;;;;;;6.60;3.38;;;16.30;99.90;;;;;;4978080;28;94603;-37
2023/09/13 11:14:47;;;;;;;6.97;3.08;;;16.40;99.90;;;;;;4983890;28;94516;-37
2023/09/13 11:17:39;;;;;;;8.88;3.83;;;16.40;99.90;;;;;;4985533;28;93998;-33
2023/09/13 11:20:23;;;;;;;6.78;3.55;;;16.60;99.90;;;;;;4981503;28;94890;-35
2023/09/13 11:23:05;;;;;;;6.65;3.13;;;16.90;99.90;;;;;;4979782;28;94491;-37
2023/09/13 11:25:38;;;;;;;6.72;3.58;;;17.00;99.90;;;;;;4989148;28;93118;-34
2023/09/13 11:28:09;;;;;;;6.22;3.17;;;17.10;99.90;;;;;;4978809;28;93263;-37
2023/09/13 11:30:51;;;;;;;7.85;3.50;;;17.10;99.90;;;;;;4989769;28;95522;-36
2023/09/13 11:33:18;;;;;;;7.35;3.22;;;17.10;99.90;;;;;;4995922;28;95770;-34
2023/09/13 11:35:44;;;;;;;8.98;3.20;;;17.10;99.90;;;;;;4987635;28;94712;-36
2023/09/13 11:38:12;;;;;;;9.60;3.70;;;17.10;99.90;;;;;;4978761;28;92630;-34
2023/09/13 11:40:40;;;;;;;10.05;3.22;;;17.10;99.90;;;;;;4978933;28;95056;-33
2023/09/13 11:43:10;;;;;;;7.32;3.28;;;17.10;99.90;;;;;;4978133;28;95953;-36
2023/09/13 11:45:38;;;;;;;9.20;2.80;;;17.30;99.90;;;;;;4967094;28;92326;-36
2023/09/13 11:48:06;;;;;;;4.68;3.67;;;17.50;99.90;;;;;;4974900;28;93392;-34
2023/09/13 11:50:47;;;;;;;7.07;2.97;;;17.60;99.90;;;;;;4974845;28;94848;-36
2023/09/13 11:53:19;;;;;;;5.97;3.38;;;17.60;99.90;;;;;;4974788;28;94548;-34
2023/09/13 11:55:51;;;;;;;5.85;3.13;;;17.70;99.90;;;;;;4980967;28;94993;-34
2023/09/13 11:58:17;;;;;;;8.18;3.35;;;17.80;99.90;;;;;;4976147;28;94435;-35
2023/09/13 12:00:43;;;;;;;2.45;2.10;;;17.90;99.90;;;;;;4975536;28;94260;-34
2023/09/13 12:03:10;;;;;;;9.00;3.20;;;18.10;99.90;;;;;;4976030;28;94621;-34
2023/09/13 12:05:39;;;;;;;4.57;2.83;;;18.20;99.90;;;;;;4976094;28;92515;-33
2023/09/13 12:08:27;;;;;;;4.93;2.90;;;18.30;99.90;;;;;;4975295;28;93109;-35
2023/09/13 12:10:58;;;;;;;7.03;3.22;;;18.40;99.90;;;;;;4975470;28;94471;-36
2023/09/13 12:13:43;;;;;;;6.50;2.53;;;18.40;99.90;;;;;;4981151;28;93875;-37
2023/09/13 12:16:09;;;;;;;6.15;3.42;;;18.50;99.90;;;;;;4965454;28;93920;-34
2023/09/13 12:18:36;;;;;;;2.92;2.47;;;18.40;99.90;;;;;;4955984;28;94142;-37
2023/09/13 12:21:02;;;;;;;5.10;2.90;;;18.50;99.90;;;;;;4974714;28;96121;-36
2023/09/13 12:23:32;;;;;;;4.13;2.80;;;18.50;99.90;;;;;;4985673;28;95400;-34
2023/09/13 12:25:58;;;;;;;10.32;4.30;;;18.40;99.90;;;;;;4984025;28;93664;-38
2023/09/13 12:28:33;;;;;;;3.95;2.63;;;18.40;99.90;;;;;;4985604;28;94542;-37
2023/09/13 12:30:58;;;;;;;5.97;2.30;;;18.30;99.90;;;;;;4991013;28;94317;-33
2023/09/13 12:33:25;;;;;;;7.70;3.05;;;18.30;99.90;;;;;;4977229;28;94698;-37
2023/09/13 12:35:51;;;;;;;4.43;2.42;;;18.20;99.90;;;;;;4994192;28;93431;-37
2023/09/13 12:38:19;;;;;;;5.05;2.55;;;18.10;99.90;;;;;;4981765;28;92504;-35
2023/09/13 12:40:49;;;;;;;4.72;2.92;;;18.10;99.90;;;;;;4974277;28;94383;-35
2023/09/13 12:43:15;;;;;;;6.03;2.95;;;18.10;99.90;;;;;;4987389;28;94323;-36
2023/09/13 12:45:41;;;;;;;6.55;2.53;;;18.00;99.90;;;;;;4987519;28;95120;-34
2023/09/13 12:48:06;;;;;;;4.78;3.22;;;18.00;99.90;;;;;;4974921;28;93122;-34